AirNav   Everest Fuels
 
 1644 users online  

II13 Sugar Creek Air Park
Markleville, Indiana, USA

GOING TO MARKLEVILLE?


FAA INFORMATION EFFECTIVE 09 SEPTEMBER 2021

Location

FAA Identifier: II13
Lat/Long: 39-55-13.0000N 085-35-55.0000W
39-55.216667N 085-35.916667W
39.9202778,-85.5986111
(estimated)
Elevation: 1000 ft. / 305 m (estimated)
From city: 4 miles S of MARKLEVILLE, IN
Time zone: UTC -4 (UTC -5 during Standard Time)
Zip code: 47384

Airport Operations

Airport use: Private use. Permission required prior to landing
Activation date: 02/2008
Control tower: no
ARTCC: INDIANAPOLIS CENTER
FSS: TERRE HAUTE FLIGHT SERVICE STATION
Attendance: UNATNDD
Wind indicator: yes
Segmented circle: no

Airport Communications

WX AWOS-3 at AID (11 nm N): 128.55 (765-442-1245)
WX AWOS-3 at MQJ (15 nm W): 124.175 (317-335-3037)

Nearby radio navigation aids

VOR radial/distance  VOR name  Freq  Var
SHBr030/20.2SHELBYVILLE VOR/DME112.0001E
MIEr209/21.2MUNCIE VOR/DME114.4003W
MZZr177/34.6MARION VOR/DME108.6003W
VHPr079/36.0BRICKYARD VORTAC116.3001E

 
NDB name  Hdg/Dist  Freq  Var  ID
VIDEO207/9.839403WAI .- ..
NEW CASTLE287/13.138506WUWL ..- .-- .-..
METROPOLITAN096/20.833803WUMP ..- -- .--.
BATESVILLE340/37.825405WHLB .... .-.. -...

Airport Services

Runway Information

Runway 18/36

Dimensions: 1870 x 150 ft. / 570 x 46 m
Surface: turf
RUNWAY 18  RUNWAY 36
Traffic pattern: leftleft

Airport Ownership and Management from official FAA records

Ownership: Privately-owned
Owner: JEFF ROBERT & PHILLIP JONES
5968 CARROLL RD
INDIANAPOLIS, IN 46235
Phone 317-979-0707
Manager: JEFF ROBERTS
5968 CARROL RD
INDIANAPOLIS, IN 46235
Phone 317-326-3890

Airport Operational Statistics

Aircraft based on the field: 1
Single engine airplanes: 1
    

Additional Remarks

FOR CD CTC INDIANAPOLIS APCH AT 317-227-5743.

Instrument Procedures

There are no published instrument procedures at II13.

Some nearby airports with instrument procedures:

KAID - Anderson Municipal Airport-Darlington Field (11 nm N)
KUWL - New Castle Henry County Airport / Marlatt Field (13 nm E)
KMQJ - Indianapolis Regional Airport (15 nm W)
KUMP - Indianapolis Metro Airport (21 nm W)
KMIE - Delaware County Regional Airport (21 nm NE)
 
Loc | Ops | Rwys | IFR | FBO | Links
Com | Nav | Svcs | Stats | Notes
Aerial photo
No photo
 
Sectional chart

 
Airport distance calculator
Flying to Sugar Creek Air Park? Find the distance to fly.

From to II13

Sunrise and sunset
Times for 21-Sep-2021
 Local
(UTC-4)
 Zulu
(UTC)
Morning civil twilight07:0311:03
Sunrise07:3011:30
Sunset19:4123:41
Evening civil twilight20:0800:08

Current date and time
Zulu (UTC)  21-Sep-2021 18:19:47
Local (UTC-4)  21-Sep-2021 14:19:47
 
METAR
KAID 
12nm N 
211559Z 10SM BKN016 BKN075 BKN100 23/17 A3007
KMQJ 
14nm W 
211635Z AUTO 19006KT 5SM OVC018 23/22 A3007 RMK AO1
KMIE 
21nm NE 
211553Z 21009G16KT 160V220 10SM BKN017 OVC021 24/19 A3006 RMK AO2 SLP168 T02390189
KGEZ 
22nm SW 
211553Z AUTO 17012KT 10SM OVC011 23/20 A3005 RMK AO2 SLP171 T02330200
TAF
KIND 
34nm W 
211138Z 2112/2218 18008KT P6SM VCSH OVC015 FM211800 19007KT 6SM SHRA BR VCTS OVC009CB FM212000 24006KT 5SM SHRA BR VCTS OVC012CB FM212300 33008KT 4SM SHRA BR VCTS OVC009CB FM220700 34012G20KT 5SM SHRA BR OVC008 FM221300 35013KT 6SM SHRA BR BKN015
NOTAMs
Click for the latest NOTAMs
NOTAMs are issued by the DoD/FAA and will open in a separate window not controlled by AirNav.

 

 
 

Would you like to see your business listed on this page?

 If your business provides an interesting product or service to pilots, flight crews, aircraft, or users of the Sugar Creek Air Park, you should consider listing it here.  To start the listing process, click on the button below
 
Add a business
 

Other Pages about Sugar Creek Air Park

Update a link
 
Copyright © AirNav, LLC. All rights reserved. Privacy Policy  Contact